sensor_id;sensor_type;location;lat;lon;timestamp;pressure;altitude;pressure_sealevel;temperature;humidity
11808;BME280;5961;42.640;23.380;2022-08-11T00:02:31;94230.34;;;21.79;79.71
11808;BME280;5961;42.640;23.380;2022-08-11T00:05:03;94227.31;;;21.73;79.74
11808;BME280;5961;42.640;23.380;2022-08-11T00:07:31;94221.97;;;21.66;80.13
11808;BME280;5961;42.640;23.380;2022-08-11T00:10:00;94235.84;;;21.68;80.07
11808;BME280;5961;42.640;23.380;2022-08-11T00:12:27;94233.16;;;21.65;80.49
11808;BME280;5961;42.640;23.380;2022-08-11T00:14:56;94234.75;;;21.59;80.68
11808;BME280;5961;42.640;23.380;2022-08-11T00:17:27;94221.69;;;21.50;81.09
11808;BME280;5961;42.640;23.380;2022-08-11T00:20:01;94180.50;;;21.25;81.05
11808;BME280;5961;42.640;23.380;2022-08-11T00:22:29;94214.38;;;21.44;81.75
11808;BME280;5961;42.640;23.380;2022-08-11T00:24:58;94225.56;;;21.46;81.57
11808;BME280;5961;42.640;23.380;2022-08-11T00:27:33;94217.50;;;21.42;81.83
11808;BME280;5961;42.640;23.380;2022-08-11T00:30:00;94222.84;;;21.49;81.43
11808;BME280;5961;42.640;23.380;2022-08-11T00:32:29;94222.06;;;21.49;81.86
11808;BME280;5961;42.640;23.380;2022-08-11T00:34:57;94218.56;;;21.52;81.31
11808;BME280;5961;42.640;23.380;2022-08-11T00:37:24;94214.31;;;21.54;81.49
11808;BME280;5961;42.640;23.380;2022-08-11T00:39:53;94210.84;;;21.54;81.38
11808;BME280;5961;42.640;23.380;2022-08-11T00:42:30;94211.19;;;21.56;81.34
11808;BME280;5961;42.640;23.380;2022-08-11T00:45:09;94209.63;;;21.62;81.07
11808;BME280;5961;42.640;23.380;2022-08-11T00:47:52;94221.22;;;21.62;81.17
11808;BME280;5961;42.640;23.380;2022-08-11T00:50:28;94215.03;;;21.62;81.16
11808;BME280;5961;42.640;23.380;2022-08-11T00:56:44;94211.25;;;21.49;82.01
11808;BME280;5961;42.640;23.380;2022-08-11T00:59:53;94208.53;;;21.49;81.72
11808;BME280;5961;42.640;23.380;2022-08-11T01:02:40;94206.69;;;21.42;81.78
11808;BME280;5961;42.640;23.380;2022-08-11T01:05:27;94213.94;;;21.52;81.83
11808;BME280;5961;42.640;23.380;2022-08-11T01:11:51;94223.94;;;21.59;81.51
11808;BME280;5961;42.640;23.380;2022-08-11T01:18:09;94212.31;;;21.62;81.58
11808;BME280;5961;42.640;23.380;2022-08-11T01:21:11;94205.34;;;21.61;81.87
11808;BME280;5961;42.640;23.380;2022-08-11T01:30:24;94210.72;;;21.68;81.49
11808;BME280;5961;42.640;23.380;2022-08-11T01:45:49;94198.78;;;21.65;81.59
11808;BME280;5961;42.640;23.380;2022-08-11T01:48:30;94203.06;;;21.63;81.65
11808;BME280;5961;42.640;23.380;2022-08-11T01:51:11;94210.75;;;21.64;81.86
11808;BME280;5961;42.640;23.380;2022-08-11T01:53:50;94191.47;;;21.59;81.79
11808;BME280;5961;42.640;23.380;2022-08-11T01:56:37;94204.53;;;21.67;81.59
11808;BME280;5961;42.640;23.380;2022-08-11T01:59:15;94192.63;;;21.58;81.85
11808;BME280;5961;42.640;23.380;2022-08-11T02:04:52;94198.50;;;21.49;82.60
11808;BME280;5961;42.640;23.380;2022-08-11T02:07:30;94195.00;;;21.49;82.60
11808;BME280;5961;42.640;23.380;2022-08-11T02:10:13;94195.09;;;21.42;82.91
11808;BME280;5961;42.640;23.380;2022-08-11T02:13:06;94195.53;;;21.33;83.47
11808;BME280;5961;42.640;23.380;2022-08-11T02:15:39;94195.91;;;21.31;83.39
11808;BME280;5961;42.640;23.380;2022-08-11T02:18:15;94189.72;;;21.31;83.44
11808;BME280;5961;42.640;23.380;2022-08-11T02:20:50;94197.50;;;21.25;83.99
11808;BME280;5961;42.640;23.380;2022-08-11T02:23:41;94198.28;;;21.22;84.24
11808;BME280;5961;42.640;23.380;2022-08-11T02:26:15;94200.97;;;21.26;83.94
11808;BME280;5961;42.640;23.380;2022-08-11T02:28:54;94200.94;;;21.29;83.55
11808;BME280;5961;42.640;23.380;2022-08-11T02:31:37;94198.22;;;21.33;83.40
11808;BME280;5961;42.640;23.380;2022-08-11T02:34:37;94196.25;;;21.41;83.25
11808;BME280;5961;42.640;23.380;2022-08-11T02:37:16;94195.84;;;21.42;83.00
11808;BME280;5961;42.640;23.380;2022-08-11T02:39:58;94205.50;;;21.43;82.91
11808;BME280;5961;42.640;23.380;2022-08-11T02:42:34;94200.84;;;21.47;82.80
11808;BME280;5961;42.640;23.380;2022-08-11T02:45:16;94193.88;;;21.46;82.53
11808;BME280;5961;42.640;23.380;2022-08-11T02:48:00;94195.38;;;21.54;82.15
11808;BME280;5961;42.640;23.380;2022-08-11T02:50:52;94193.03;;;21.56;81.90
11808;BME280;5961;42.640;23.380;2022-08-11T02:53:25;94201.13;;;21.60;81.78
11808;BME280;5961;42.640;23.380;2022-08-11T02:56:02;94201.91;;;21.60;81.52
11808;BME280;5961;42.640;23.380;2022-08-11T02:58:43;94179.53;;;21.53;81.54
11808;BME280;5961;42.640;23.380;2022-08-11T03:01:42;94197.69;;;21.56;81.69
11808;BME280;5961;42.640;23.380;2022-08-11T03:04:17;94198.84;;;21.55;81.77
11808;BME280;5961;42.640;23.380;2022-08-11T03:06:48;94200.38;;;21.56;81.68
11808;BME280;5961;42.640;23.380;2022-08-11T03:09:19;94199.59;;;21.55;81.75
11808;BME280;5961;42.640;23.380;2022-08-11T03:11:56;94195.00;;;21.52;81.84
11808;BME280;5961;42.640;23.380;2022-08-11T03:14:48;94205.03;;;21.55;81.66
11808;BME280;5961;42.640;23.380;2022-08-11T03:17:41;94208.94;;;21.51;82.10
11808;BME280;5961;42.640;23.380;2022-08-11T03:20:24;94197.34;;;21.50;81.89
11808;BME280;5961;42.640;23.380;2022-08-11T03:22:59;94206.25;;;21.47;82.06
11808;BME280;5961;42.640;23.380;2022-08-11T03:25:42;94205.03;;;21.52;81.94
11808;BME280;5961;42.640;23.380;2022-08-11T03:28:21;94198.91;;;21.48;82.04
11808;BME280;5961;42.640;23.380;2022-08-11T03:31:00;94196.56;;;21.50;81.96
11808;BME280;5961;42.640;23.380;2022-08-11T03:33:37;94207.38;;;21.50;82.06
11808;BME280;5961;42.640;23.380;2022-08-11T03:39:36;94210.13;;;21.43;82.32
11808;BME280;5961;42.640;23.380;2022-08-11T03:42:15;94206.25;;;21.44;82.29
11808;BME280;5961;42.640;23.380;2022-08-11T03:44:53;94194.69;;;21.40;82.25
11808;BME280;5961;42.640;23.380;2022-08-11T03:47:30;94206.63;;;21.46;82.07
11808;BME280;5961;42.640;23.380;2022-08-11T03:50:12;94210.09;;;21.50;81.80
11808;BME280;5961;42.640;23.380;2022-08-11T03:52:50;94214.34;;;21.51;81.63
11808;BME280;5961;42.640;23.380;2022-08-11T03:55:29;94205.44;;;21.50;81.44
11808;BME280;5961;42.640;23.380;2022-08-11T04:01:28;94208.50;;;21.56;81.37
11808;BME280;5961;42.640;23.380;2022-08-11T04:07:28;94161.19;;;21.30;80.92
11808;BME280;5961;42.640;23.380;2022-08-11T04:10:30;94210.38;;;21.66;80.81
11808;BME280;5961;42.640;23.380;2022-08-11T04:13:22;94212.66;;;21.67;80.51
11808;BME280;5961;42.640;23.380;2022-08-11T04:16:03;94213.75;;;21.77;80.35
11808;BME280;5961;42.640;23.380;2022-08-11T04:27:58;94231.09;;;21.90;79.66
11808;BME280;5961;42.640;23.380;2022-08-11T04:30:45;94224.09;;;21.93;79.48
11808;BME280;5961;42.640;23.380;2022-08-11T04:33:33;94234.16;;;21.92;79.61
11808;BME280;5961;42.640;23.380;2022-08-11T04:36:18;94217.47;;;21.97;79.22
11808;BME280;5961;42.640;23.380;2022-08-11T04:39:15;94231.41;;;21.99;79.12
11808;BME280;5961;42.640;23.380;2022-08-11T04:42:40;94217.09;;;21.99;79.20
11808;BME280;5961;42.640;23.380;2022-08-11T04:46:00;94228.75;;;21.92;79.55
11808;BME280;5961;42.640;23.380;2022-08-11T04:48:56;94224.13;;;21.85;79.61
11808;BME280;5961;42.640;23.380;2022-08-11T04:52:05;94222.56;;;21.88;79.81
11808;BME280;5961;42.640;23.380;2022-08-11T04:55:14;94222.19;;;21.86;79.77
11808;BME280;5961;42.640;23.380;2022-08-11T05:01:22;94224.13;;;21.89;79.39
11808;BME280;5961;42.640;23.380;2022-08-11T05:04:40;94224.78;;;22.00;79.49
11808;BME280;5961;42.640;23.380;2022-08-11T05:10:50;94220.78;;;22.15;78.80
11808;BME280;5961;42.640;23.380;2022-08-11T05:13:26;94226.94;;;22.23;77.97
11808;BME280;5961;42.640;23.380;2022-08-11T05:16:14;94224.16;;;22.30;77.63
11808;BME280;5961;42.640;23.380;2022-08-11T05:19:02;94221.75;;;22.39;77.13
11808;BME280;5961;42.640;23.380;2022-08-11T05:21:52;94215.13;;;22.43;76.67
11808;BME280;5961;42.640;23.380;2022-08-11T05:24:41;94229.75;;;22.50;76.46
11808;BME280;5961;42.640;23.380;2022-08-11T05:27:31;94230.09;;;22.55;76.02
11808;BME280;5961;42.640;23.380;2022-08-11T05:30:18;94224.25;;;22.60;75.79
11808;BME280;5961;42.640;23.380;2022-08-11T05:33:07;94223.81;;;22.62;75.56
11808;BME280;5961;42.640;23.380;2022-08-11T05:36:04;94228.44;;;22.68;75.37
11808;BME280;5961;42.640;23.380;2022-08-11T05:38:35;94230.34;;;22.71;75.23
11808;BME280;5961;42.640;23.380;2022-08-11T05:41:22;94227.19;;;22.76;75.08
11808;BME280;5961;42.640;23.380;2022-08-11T05:44:09;94224.78;;;22.82;75.00
11808;BME280;5961;42.640;23.380;2022-08-11T05:47:00;94227.06;;;22.87;74.89
11808;BME280;5961;42.640;23.380;2022-08-11T05:49:48;94216.31;;;22.80;74.62
11808;BME280;5961;42.640;23.380;2022-08-11T05:52:35;94227.03;;;22.90;74.41
11808;BME280;5961;42.640;23.380;2022-08-11T05:55:20;94219.66;;;22.91;74.12
11808;BME280;5961;42.640;23.380;2022-08-11T05:58:06;94223.06;;;22.99;74.01
11808;BME280;5961;42.640;23.380;2022-08-11T06:00:40;94222.97;;;23.06;74.10
11808;BME280;5961;42.640;23.380;2022-08-11T06:03:08;94227.19;;;23.07;73.60
11808;BME280;5961;42.640;23.380;2022-08-11T06:05:37;94229.91;;;23.07;73.04
11808;BME280;5961;42.640;23.380;2022-08-11T06:08:08;94229.06;;;23.13;72.25
11808;BME280;5961;42.640;23.380;2022-08-11T06:10:38;94229.78;;;23.17;71.68
11808;BME280;5961;42.640;23.380;2022-08-11T06:13:06;94225.50;;;23.20;70.64
11808;BME280;5961;42.640;23.380;2022-08-11T06:15:43;94221.94;;;23.26;70.58
11808;BME280;5961;42.640;23.380;2022-08-11T06:18:11;94226.88;;;23.31;71.08
11808;BME280;5961;42.640;23.380;2022-08-11T06:20:45;94221.13;;;23.29;71.43
11808;BME280;5961;42.640;23.380;2022-08-11T06:23:14;94215.31;;;23.27;71.24
11808;BME280;5961;42.640;23.380;2022-08-11T06:25:45;94225.81;;;23.25;70.54
11808;BME280;5961;42.640;23.380;2022-08-11T06:28:14;94221.94;;;23.26;70.90
11808;BME280;5961;42.640;23.380;2022-08-11T06:30:43;94225.88;;;23.18;70.52
11808;BME280;5961;42.640;23.380;2022-08-11T06:33:13;94213.84;;;23.23;69.69
11808;BME280;5961;42.640;23.380;2022-08-11T06:35:50;94214.97;;;23.25;69.52
11808;BME280;5961;42.640;23.380;2022-08-11T06:38:35;94222.28;;;23.28;69.57
11808;BME280;5961;42.640;23.380;2022-08-11T06:41:16;94217.19;;;23.30;68.83
11808;BME280;5961;42.640;23.380;2022-08-11T06:44:01;94216.72;;;23.39;68.86
11808;BME280;5961;42.640;23.380;2022-08-11T06:46:31;94221.41;;;23.35;68.49
11808;BME280;5961;42.640;23.380;2022-08-11T06:49:02;94213.97;;;23.42;68.27
11808;BME280;5961;42.640;23.380;2022-08-11T06:51:29;94223.13;;;23.52;67.91
11808;BME280;5961;42.640;23.380;2022-08-11T06:53:59;94219.22;;;23.57;67.25
11808;BME280;5961;42.640;23.380;2022-08-11T06:56:28;94206.03;;;23.55;67.45
11808;BME280;5961;42.640;23.380;2022-08-11T06:59:15;94212.84;;;23.67;67.12
11808;BME280;5961;42.640;23.380;2022-08-11T07:02:04;94229.84;;;23.71;65.96
11808;BME280;5961;42.640;23.380;2022-08-11T07:04:39;94223.59;;;23.74;65.93
11808;BME280;5961;42.640;23.380;2022-08-11T07:10:46;94221.94;;;23.80;65.82
11808;BME280;5961;42.640;23.380;2022-08-11T07:13:37;94228.84;;;23.84;64.95
11808;BME280;5961;42.640;23.380;2022-08-11T07:16:26;94222.53;;;23.91;64.08
11808;BME280;5961;42.640;23.380;2022-08-11T07:18:56;94221.03;;;23.90;63.11
11808;BME280;5961;42.640;23.380;2022-08-11T07:21:43;94232.19;;;23.95;63.30
11808;BME280;5961;42.640;23.380;2022-08-11T07:24:32;94234.38;;;24.04;62.96
11808;BME280;5961;42.640;23.380;2022-08-11T07:27:20;94223.44;;;24.11;61.41
11808;BME280;5961;42.640;23.380;2022-08-11T07:30:09;94231.91;;;24.13;60.90
11808;BME280;5961;42.640;23.380;2022-08-11T07:32:40;94233.47;;;24.14;61.40
11808;BME280;5961;42.640;23.380;2022-08-11T07:35:12;94226.44;;;24.17;60.92
11808;BME280;5961;42.640;23.380;2022-08-11T07:37:43;94228.28;;;24.23;60.79
11808;BME280;5961;42.640;23.380;2022-08-11T07:40:12;94223.19;;;24.25;60.90
11808;BME280;5961;42.640;23.380;2022-08-11T07:42:42;94222.63;;;24.34;60.25
11808;BME280;5961;42.640;23.380;2022-08-11T07:45:11;94217.63;;;24.32;59.96
11808;BME280;5961;42.640;23.380;2022-08-11T07:47:56;94220.69;;;24.34;59.32
11808;BME280;5961;42.640;23.380;2022-08-11T07:50:41;94221.75;;;24.40;59.38
11808;BME280;5961;42.640;23.380;2022-08-11T07:53:26;94216.31;;;24.40;59.79
11808;BME280;5961;42.640;23.380;2022-08-11T07:55:56;94225.19;;;24.44;60.01
11808;BME280;5961;42.640;23.380;2022-08-11T07:58:26;94225.88;;;24.48;59.88
11808;BME280;5961;42.640;23.380;2022-08-11T08:01:12;94219.25;;;24.49;58.49
11808;BME280;5961;42.640;23.380;2022-08-11T08:04:01;94223.81;;;24.56;57.92
11808;BME280;5961;42.640;23.380;2022-08-11T08:06:47;94212.88;;;24.60;57.62
11808;BME280;5961;42.640;23.380;2022-08-11T08:09:33;94208.28;;;24.56;57.64
11808;BME280;5961;42.640;23.380;2022-08-11T08:12:19;94213.63;;;24.60;57.23
11808;BME280;5961;42.640;23.380;2022-08-11T08:15:08;94221.66;;;24.67;57.13
11808;BME280;5961;42.640;23.380;2022-08-11T08:17:54;94207.66;;;24.69;57.93
11808;BME280;5961;42.640;23.380;2022-08-11T08:20:25;94207.56;;;24.72;56.83
11808;BME280;5961;42.640;23.380;2022-08-11T08:22:55;94207.88;;;24.78;56.50
11808;BME280;5961;42.640;23.380;2022-08-11T08:25:24;94216.31;;;24.83;56.71
11808;BME280;5961;42.640;23.380;2022-08-11T08:27:52;94207.41;;;24.83;57.55
11808;BME280;5961;42.640;23.380;2022-08-11T08:30:23;94219.44;;;24.82;55.90
11808;BME280;5961;42.640;23.380;2022-08-11T08:33:11;94190.78;;;24.77;55.75
11808;BME280;5961;42.640;23.380;2022-08-11T08:35:40;94210.13;;;24.83;56.08
11808;BME280;5961;42.640;23.380;2022-08-11T08:38:08;94203.84;;;24.86;55.81
11808;BME280;5961;42.640;23.380;2022-08-11T08:40:37;94202.31;;;24.85;56.05
11808;BME280;5961;42.640;23.380;2022-08-11T08:43:08;94195.19;;;24.91;56.69
11808;BME280;5961;42.640;23.380;2022-08-11T08:45:36;94192.00;;;24.96;56.44
11808;BME280;5961;42.640;23.380;2022-08-11T08:48:10;94193.44;;;25.00;56.07
11808;BME280;5961;42.640;23.380;2022-08-11T08:50:42;94194.22;;;25.01;55.86
11808;BME280;5961;42.640;23.380;2022-08-11T08:53:33;94186.75;;;25.05;55.64
11808;BME280;5961;42.640;23.380;2022-08-11T08:56:01;94202.06;;;25.15;55.27
11808;BME280;5961;42.640;23.380;2022-08-11T08:58:29;94201.22;;;25.18;54.79
11808;BME280;5961;42.640;23.380;2022-08-11T09:00:58;94203.09;;;25.21;54.61
11808;BME280;5961;42.640;23.380;2022-08-11T09:03:26;94187.28;;;25.16;53.61
11808;BME280;5961;42.640;23.380;2022-08-11T09:05:54;94193.25;;;25.27;53.64
11808;BME280;5961;42.640;23.380;2022-08-11T09:08:21;94201.34;;;25.31;52.99
11808;BME280;5961;42.640;23.380;2022-08-11T09:10:49;94188.78;;;25.37;52.47
11808;BME280;5961;42.640;23.380;2022-08-11T09:13:39;94176.22;;;25.43;52.60
11808;BME280;5961;42.640;23.380;2022-08-11T09:16:10;94138.53;;;25.25;53.17
11808;BME280;5961;42.640;23.380;2022-08-11T09:18:39;94176.59;;;25.61;52.31
11808;BME280;5961;42.640;23.380;2022-08-11T09:21:10;94179.59;;;25.67;52.47
11808;BME280;5961;42.640;23.380;2022-08-11T09:23:37;94179.44;;;25.74;52.48
11808;BME280;5961;42.640;23.380;2022-08-11T09:26:22;94149.06;;;25.39;52.61
11808;BME280;5961;42.640;23.380;2022-08-11T09:29:09;94171.84;;;25.65;52.65
11808;BME280;5961;42.640;23.380;2022-08-11T09:31:38;94173.47;;;25.62;52.75
11808;BME280;5961;42.640;23.380;2022-08-11T09:34:05;94171.25;;;25.57;52.85
11808;BME280;5961;42.640;23.380;2022-08-11T09:36:31;94181.28;;;25.60;52.18
11808;BME280;5961;42.640;23.380;2022-08-11T09:39:17;94175.91;;;25.57;52.28
11808;BME280;5961;42.640;23.380;2022-08-11T09:42:02;94163.91;;;25.54;52.86
11808;BME280;5961;42.640;23.380;2022-08-11T09:44:30;94164.09;;;25.63;53.06
11808;BME280;5961;42.640;23.380;2022-08-11T09:47:20;94163.25;;;25.67;53.63
11808;BME280;5961;42.640;23.380;2022-08-11T09:49:49;94161.22;;;25.71;53.61
11808;BME280;5961;42.640;23.380;2022-08-11T09:52:18;94162.75;;;25.72;53.18
11808;BME280;5961;42.640;23.380;2022-08-11T09:54:46;94164.28;;;25.73;52.85
11808;BME280;5961;42.640;23.380;2022-08-11T09:57:17;94161.13;;;25.74;52.71
11808;BME280;5961;42.640;23.380;2022-08-11T10:00:03;94168.53;;;25.74;52.45
11808;BME280;5961;42.640;23.380;2022-08-11T10:02:31;94152.19;;;25.74;51.16
11808;BME280;5961;42.640;23.380;2022-08-11T10:04:59;94139.78;;;25.73;52.05
11808;BME280;5961;42.640;23.380;2022-08-11T10:07:41;94146.75;;;25.74;52.15
11808;BME280;5961;42.640;23.380;2022-08-11T10:10:15;94144.38;;;25.76;52.32
11808;BME280;5961;42.640;23.380;2022-08-11T10:12:47;94138.84;;;25.79;51.99
11808;BME280;5961;42.640;23.380;2022-08-11T10:15:17;94142.00;;;25.78;51.29
11808;BME280;5961;42.640;23.380;2022-08-11T10:18:04;94140.47;;;25.77;52.50
11808;BME280;5961;42.640;23.380;2022-08-11T10:20:50;94135.34;;;25.79;52.64
11808;BME280;5961;42.640;23.380;2022-08-11T10:23:19;94137.56;;;25.84;53.73
11808;BME280;5961;42.640;23.380;2022-08-11T10:26:04;94137.81;;;25.89;53.19
11808;BME280;5961;42.640;23.380;2022-08-11T10:28:51;94136.00;;;25.99;52.39
11808;BME280;5961;42.640;23.380;2022-08-11T10:31:19;94144.84;;;26.03;52.60
11808;BME280;5961;42.640;23.380;2022-08-11T10:34:06;94144.44;;;26.04;52.15
11808;BME280;5961;42.640;23.380;2022-08-11T10:36:36;94141.97;;;26.10;51.58
11808;BME280;5961;42.640;23.380;2022-08-11T10:39:09;94138.03;;;26.11;50.99
11808;BME280;5961;42.640;23.380;2022-08-11T10:41:36;94147.22;;;26.17;51.80
11808;BME280;5961;42.640;23.380;2022-08-11T10:44:21;94140.94;;;26.20;51.49
11808;BME280;5961;42.640;23.380;2022-08-11T10:46:48;94121.44;;;26.22;51.42
11808;BME280;5961;42.640;23.380;2022-08-11T10:49:34;94128.31;;;26.26;50.86
11808;BME280;5961;42.640;23.380;2022-08-11T10:52:02;94125.94;;;26.28;50.63
11808;BME280;5961;42.640;23.380;2022-08-11T10:54:46;94125.84;;;26.32;50.80
11808;BME280;5961;42.640;23.380;2022-08-11T10:57:31;94128.13;;;26.33;50.32
11808;BME280;5961;42.640;23.380;2022-08-11T11:00:15;94121.81;;;26.36;50.34
11808;BME280;5961;42.640;23.380;2022-08-11T11:02:43;94124.00;;;26.41;49.82
11808;BME280;5961;42.640;23.380;2022-08-11T11:05:15;94122.66;;;26.49;49.27
11808;BME280;5961;42.640;23.380;2022-08-11T11:07:50;94133.47;;;26.53;49.32
11808;BME280;5961;42.640;23.380;2022-08-11T11:10:18;94120.59;;;26.66;48.25
11808;BME280;5961;42.640;23.380;2022-08-11T11:12:49;94122.38;;;26.72;48.10
11808;BME280;5961;42.640;23.380;2022-08-11T11:15:35;94105.31;;;26.85;46.78
11808;BME280;5961;42.640;23.380;2022-08-11T11:18:21;94107.59;;;26.99;47.04
11808;BME280;5961;42.640;23.380;2022-08-11T11:20:55;94113.94;;;27.08;46.70
11808;BME280;5961;42.640;23.380;2022-08-11T11:23:24;94122.38;;;27.26;44.47
11808;BME280;5961;42.640;23.380;2022-08-11T11:26:04;94096.06;;;27.20;43.89
11808;BME280;5961;42.640;23.380;2022-08-11T11:28:52;94123.91;;;27.40;41.51
11808;BME280;5961;42.640;23.380;2022-08-11T11:31:33;94118.81;;;27.42;41.73
11808;BME280;5961;42.640;23.380;2022-08-11T11:34:14;94122.06;;;27.37;43.53
11808;BME280;5961;42.640;23.380;2022-08-11T11:36:48;94117.88;;;27.20;44.12
11808;BME280;5961;42.640;23.380;2022-08-11T11:41:45;94119.66;;;27.39;43.07
11808;BME280;5961;42.640;23.380;2022-08-11T11:44:13;94112.78;;;27.47;42.85
11808;BME280;5961;42.640;23.380;2022-08-11T11:46:40;94118.91;;;27.64;43.95
11808;BME280;5961;42.640;23.380;2022-08-11T11:49:11;94114.94;;;27.77;44.13
11808;BME280;5961;42.640;23.380;2022-08-11T11:51:40;94113.50;;;27.86;47.64
11808;BME280;5961;42.640;23.380;2022-08-11T11:54:08;94097.72;;;28.02;48.67
11808;BME280;5961;42.640;23.380;2022-08-11T11:56:36;94102.19;;;28.21;48.38
11808;BME280;5961;42.640;23.380;2022-08-11T11:59:04;94104.72;;;28.03;47.75
11808;BME280;5961;42.640;23.380;2022-08-11T12:01:48;94110.31;;;27.87;47.36
11808;BME280;5961;42.640;23.380;2022-08-11T12:04:16;94108.06;;;27.73;47.80
11808;BME280;5961;42.640;23.380;2022-08-11T12:06:45;94109.63;;;27.61;48.14
11808;BME280;5961;42.640;23.380;2022-08-11T12:09:14;94102.84;;;27.53;48.93
11808;BME280;5961;42.640;23.380;2022-08-11T12:11:43;94097.28;;;27.44;48.37
11808;BME280;5961;42.640;23.380;2022-08-11T12:14:28;94083.19;;;27.33;49.22
11808;BME280;5961;42.640;23.380;2022-08-11T12:16:56;94081.88;;;27.38;49.00
11808;BME280;5961;42.640;23.380;2022-08-11T12:19:25;94087.78;;;27.36;48.81
11808;BME280;5961;42.640;23.380;2022-08-11T12:21:54;94082.00;;;27.34;49.09
11808;BME280;5961;42.640;23.380;2022-08-11T12:24:40;94079.25;;;27.21;49.81
11808;BME280;5961;42.640;23.380;2022-08-11T12:27:26;93992.59;;;26.62;48.90
11808;BME280;5961;42.640;23.380;2022-08-11T12:29:54;94075.44;;;27.32;48.70
11808;BME280;5961;42.640;23.380;2022-08-11T12:32:23;94084.72;;;27.21;49.16
11808;BME280;5961;42.640;23.380;2022-08-11T12:34:51;94089.50;;;27.05;49.06
11808;BME280;5961;42.640;23.380;2022-08-11T12:37:24;94085.78;;;26.99;49.41
11808;BME280;5961;42.640;23.380;2022-08-11T12:39:58;94085.66;;;26.90;50.40
11808;BME280;5961;42.640;23.380;2022-08-11T12:42:44;94089.56;;;26.76;51.68
11808;BME280;5961;42.640;23.380;2022-08-11T12:45:28;94090.41;;;26.60;52.18
11808;BME280;5961;42.640;23.380;2022-08-11T12:48:02;94094.53;;;26.52;52.93
11808;BME280;5961;42.640;23.380;2022-08-11T12:50:50;94104.09;;;26.44;52.76
11808;BME280;5961;42.640;23.380;2022-08-11T12:53:32;94094.47;;;26.40;52.93
11808;BME280;5961;42.640;23.380;2022-08-11T12:56:05;94098.38;;;26.67;52.39
11808;BME280;5961;42.640;23.380;2022-08-11T12:58:51;94096.94;;;26.92;51.05
11808;BME280;5961;42.640;23.380;2022-08-11T13:01:19;94092.56;;;27.07;50.43
11808;BME280;5961;42.640;23.380;2022-08-11T13:04:03;94085.56;;;26.81;52.49
11808;BME280;5961;42.640;23.380;2022-08-11T13:06:49;94096.06;;;26.66;52.52
11808;BME280;5961;42.640;23.380;2022-08-11T13:09:17;94087.91;;;26.66;53.81
11808;BME280;5961;42.640;23.380;2022-08-11T13:11:47;94098.41;;;26.39;54.92
11808;BME280;5961;42.640;23.380;2022-08-11T13:14:32;94101.06;;;26.26;55.26
11808;BME280;5961;42.640;23.380;2022-08-11T13:16:59;94091.47;;;26.05;55.45
11808;BME280;5961;42.640;23.380;2022-08-11T13:19:46;94095.69;;;25.94;56.13
11808;BME280;5961;42.640;23.380;2022-08-11T13:22:15;94095.66;;;26.10;56.03
11808;BME280;5961;42.640;23.380;2022-08-11T13:24:43;94091.03;;;26.23;56.14
11808;BME280;5961;42.640;23.380;2022-08-11T13:27:12;94093.19;;;26.15;55.72
11808;BME280;5961;42.640;23.380;2022-08-11T13:29:40;94094.34;;;26.14;55.99
11808;BME280;5961;42.640;23.380;2022-08-11T13:32:12;94092.84;;;26.13;55.53
11808;BME280;5961;42.640;23.380;2022-08-11T13:34:40;94092.44;;;26.15;55.26
11808;BME280;5961;42.640;23.380;2022-08-11T13:37:09;94095.34;;;26.37;54.51
11808;BME280;5961;42.640;23.380;2022-08-11T13:39:41;94081.22;;;26.54;54.54
11808;BME280;5961;42.640;23.380;2022-08-11T13:42:14;94080.88;;;26.81;54.14
11808;BME280;5961;42.640;23.380;2022-08-11T13:44:44;94077.41;;;27.06;52.72
11808;BME280;5961;42.640;23.380;2022-08-11T13:47:12;94074.47;;;27.13;51.25
11808;BME280;5961;42.640;23.380;2022-08-11T13:49:40;94082.13;;;27.43;51.28
11808;BME280;5961;42.640;23.380;2022-08-11T13:52:10;94078.72;;;27.64;49.66
11808;BME280;5961;42.640;23.380;2022-08-11T13:54:39;94077.66;;;27.84;48.60
11808;BME280;5961;42.640;23.380;2022-08-11T13:57:08;94083.97;;;28.06;47.02
11808;BME280;5961;42.640;23.380;2022-08-11T13:59:38;94084.44;;;28.26;46.66
11808;BME280;5961;42.640;23.380;2022-08-11T14:02:07;94068.09;;;28.35;45.58
11808;BME280;5961;42.640;23.380;2022-08-11T14:04:41;94075.00;;;28.61;44.85
11808;BME280;5961;42.640;23.380;2022-08-11T14:07:09;94071.28;;;28.77;43.49
11808;BME280;5961;42.640;23.380;2022-08-11T14:09:42;94078.53;;;28.93;42.88
11808;BME280;5961;42.640;23.380;2022-08-11T14:12:13;94067.38;;;29.09;42.06
11808;BME280;5961;42.640;23.380;2022-08-11T14:15:01;94074.25;;;29.22;41.58
11808;BME280;5961;42.640;23.380;2022-08-11T14:17:31;94068.69;;;29.35;39.97
11808;BME280;5961;42.640;23.380;2022-08-11T14:20:02;94066.47;;;29.43;39.89
11808;BME280;5961;42.640;23.380;2022-08-11T14:22:30;94064.22;;;29.59;39.76
11808;BME280;5961;42.640;23.380;2022-08-11T14:24:57;94062.41;;;29.65;38.81
11808;BME280;5961;42.640;23.380;2022-08-11T14:27:24;94067.75;;;29.78;39.01
11808;BME280;5961;42.640;23.380;2022-08-11T14:29:56;94071.91;;;29.82;37.97
11808;BME280;5961;42.640;23.380;2022-08-11T14:32:24;94068.28;;;29.95;38.71
11808;BME280;5961;42.640;23.380;2022-08-11T14:34:52;94067.66;;;30.00;38.00
11808;BME280;5961;42.640;23.380;2022-08-11T14:37:20;94034.16;;;29.86;38.04
11808;BME280;5961;42.640;23.380;2022-08-11T14:39:50;94061.28;;;30.21;38.26
11808;BME280;5961;42.640;23.380;2022-08-11T14:42:19;94059.75;;;30.29;37.67
11808;BME280;5961;42.640;23.380;2022-08-11T14:45:06;94060.22;;;30.36;36.62
11808;BME280;5961;42.640;23.380;2022-08-11T14:47:56;94064.47;;;30.46;36.66
11808;BME280;5961;42.640;23.380;2022-08-11T14:50:26;94050.75;;;30.56;37.57
11808;BME280;5961;42.640;23.380;2022-08-11T14:52:55;94062.78;;;30.67;36.51
11808;BME280;5961;42.640;23.380;2022-08-11T14:55:24;94055.00;;;30.66;36.07
11808;BME280;5961;42.640;23.380;2022-08-11T14:58:11;94056.09;;;30.59;36.04
11808;BME280;5961;42.640;23.380;2022-08-11T15:00:40;94058.25;;;30.46;36.01